createdAt,value
2023-09-13T00:00:49.601Z,19.77
2023-09-13T00:03:23.325Z,19.10
2023-09-13T00:05:56.352Z,19.15
2023-09-13T00:08:29.330Z,18.92
2023-09-13T00:11:03.128Z,19.35
2023-09-13T00:13:36.308Z,18.73
2023-09-13T00:16:04.457Z,19.10
2023-09-13T00:18:37.345Z,18.75
2023-09-13T00:21:04.138Z,19.77
2023-09-13T00:23:37.305Z,18.77
2023-09-13T00:26:06.545Z,18.40
2023-09-13T00:28:40.319Z,17.92
2023-09-13T00:31:10.464Z,18.38
2023-09-13T00:33:44.501Z,18.92
2023-09-13T00:36:11.529Z,18.10
2023-09-13T00:38:44.355Z,20.38
2023-09-13T00:41:11.139Z,18.55
2023-09-13T00:43:44.526Z,17.83
2023-09-13T00:46:11.885Z,19.67
2023-09-13T00:48:45.434Z,20.65
2023-09-13T00:51:19.294Z,20.13
2023-09-13T00:54:06.402Z,20.40
2023-09-13T00:56:34.721Z,18.80
2023-09-13T00:59:09.315Z,19.50
2023-09-13T01:01:43.490Z,19.40
2023-09-13T01:04:10.494Z,19.83
2023-09-13T01:06:45.424Z,20.95
2023-09-13T01:09:15.300Z,20.67
2023-09-13T01:11:48.332Z,20.80
2023-09-13T01:14:14.991Z,19.40
2023-09-13T01:16:58.468Z,19.02
2023-09-13T01:19:52.356Z,20.40
2023-09-13T01:22:32.361Z,19.88
2023-09-13T01:25:17.493Z,19.80
2023-09-13T01:27:57.357Z,19.45
2023-09-13T01:30:26.248Z,20.33
2023-09-13T01:33:00.404Z,20.02
2023-09-13T01:35:27.143Z,19.38
2023-09-13T01:38:00.387Z,20.30
2023-09-13T01:40:30.918Z,18.25
2023-09-13T01:43:07.422Z,18.88
2023-09-13T01:45:42.426Z,19.40
2023-09-13T01:48:18.407Z,20.40
2023-09-13T01:50:45.869Z,20.73
2023-09-13T01:53:12.818Z,20.70
2023-09-13T01:55:46.410Z,20.98
2023-09-13T01:58:13.186Z,20.05
2023-09-13T02:00:47.531Z,19.75
2023-09-13T02:03:14.734Z,20.15
2023-09-13T02:05:48.374Z,18.85
2023-09-13T02:08:15.056Z,21.40
2023-09-13T02:10:48.418Z,21.35
2023-09-13T02:13:15.250Z,20.73
2023-09-13T02:15:49.532Z,21.00
2023-09-13T02:18:16.617Z,22.15
2023-09-13T02:20:43.642Z,20.15
2023-09-13T02:23:16.448Z,22.17
2023-09-13T02:25:53.372Z,22.52
2023-09-13T02:28:26.488Z,21.90
2023-09-13T02:30:59.536Z,22.13
2023-09-13T02:33:32.454Z,21.30
2023-09-13T02:35:59.190Z,21.65
2023-09-13T02:38:32.450Z,21.13
2023-09-13T02:40:59.133Z,21.10
2023-09-13T02:43:32.416Z,19.73
2023-09-13T02:45:59.116Z,22.02
2023-09-13T02:48:33.376Z,21.42
2023-09-13T02:51:06.485Z,22.02
2023-09-13T02:53:33.221Z,22.50
2023-09-13T02:56:16.460Z,22.05
2023-09-13T02:58:43.219Z,21.73
2023-09-13T03:01:18.558Z,22.33
2023-09-13T03:03:51.558Z,22.50
2023-09-13T03:06:18.367Z,22.23
2023-09-13T03:08:51.439Z,20.77
2023-09-13T03:11:26.494Z,19.30
2023-09-13T03:13:53.377Z,22.67
2023-09-13T03:16:29.513Z,21.58
2023-09-13T03:18:56.690Z,21.67
2023-09-13T03:21:30.411Z,21.25
2023-09-13T03:23:57.123Z,20.50
2023-09-13T03:26:32.433Z,22.13
2023-09-13T03:28:59.116Z,21.52
2023-09-13T03:31:34.583Z,22.23
2023-09-13T03:34:01.378Z,20.52
2023-09-13T03:36:35.431Z,20.52
2023-09-13T03:39:02.446Z,17.70
2023-09-13T03:41:35.501Z,20.55
2023-09-13T03:44:03.767Z,21.73
2023-09-13T03:46:37.514Z,20.67
2023-09-13T03:49:11.606Z,19.83
2023-09-13T03:51:38.435Z,18.73
2023-09-13T03:54:11.454Z,18.90
2023-09-13T03:56:44.656Z,22.15
2023-09-13T03:59:18.475Z,22.40
2023-09-13T04:01:45.962Z,22.05
2023-09-13T04:04:19.530Z,22.00
2023-09-13T04:06:46.613Z,22.00
2023-09-13T04:09:20.449Z,21.80
2023-09-13T04:11:47.196Z,21.70
2023-09-13T04:14:20.494Z,20.45
2023-09-13T04:16:47.326Z,20.98
2023-09-13T04:19:20.495Z,21.42
2023-09-13T04:21:53.471Z,20.67
2023-09-13T04:24:26.527Z,21.63
2023-09-13T04:26:59.490Z,21.95
2023-09-13T04:29:26.347Z,22.42
2023-09-13T04:31:59.519Z,20.30
2023-09-13T04:34:26.997Z,22.20
2023-09-13T04:37:02.509Z,21.70
2023-09-13T04:39:30.078Z,20.80
2023-09-13T04:42:03.521Z,22.55
2023-09-13T04:44:30.285Z,20.80
2023-09-13T04:47:05.574Z,20.88
2023-09-13T04:49:38.472Z,20.75
2023-09-13T04:52:14.607Z,21.88
2023-09-13T04:54:47.771Z,21.83
2023-09-13T04:57:21.445Z,21.23
2023-09-13T04:59:58.505Z,20.88
2023-09-13T05:02:25.397Z,21.63
2023-09-13T05:04:58.553Z,21.08
2023-09-13T05:07:25.436Z,20.25
2023-09-13T05:09:58.499Z,21.35
2023-09-13T05:12:25.164Z,20.05
2023-09-13T05:14:58.511Z,19.30
2023-09-13T05:17:25.270Z,19.08
2023-09-13T05:19:58.481Z,21.40
2023-09-13T05:22:25.304Z,21.50
2023-09-13T05:24:58.507Z,22.45
2023-09-13T05:27:25.197Z,22.48
2023-09-13T05:29:53.452Z,23.08
2023-09-13T05:32:26.605Z,25.35
2023-09-13T05:34:53.265Z,25.63
2023-09-13T05:37:26.628Z,25.98
2023-09-13T05:39:53.394Z,25.50
2023-09-13T05:42:26.575Z,26.20
2023-09-13T05:44:55.146Z,25.85
2023-09-13T05:47:28.566Z,26.95
2023-09-13T05:49:55.333Z,24.38
2023-09-13T05:52:28.577Z,26.80
2023-09-13T05:55:15.556Z,25.35
2023-09-13T05:57:48.560Z,26.67
2023-09-13T06:00:22.543Z,25.33
2023-09-13T06:02:55.535Z,23.05
2023-09-13T06:05:28.550Z,25.17
2023-09-13T06:07:55.307Z,24.65
2023-09-13T06:10:28.609Z,22.48
2023-09-13T06:12:55.800Z,22.67
2023-09-13T06:15:29.516Z,21.00
2023-09-13T06:17:56.537Z,20.10
2023-09-13T06:20:30.545Z,20.08
2023-09-13T06:23:03.527Z,18.10
2023-09-13T06:25:36.591Z,17.25
2023-09-13T06:28:05.499Z,17.17
2023-09-13T06:30:53.251Z,15.85
2023-09-13T06:33:41.187Z,13.25
2023-09-13T06:36:17.214Z,14.02
2023-09-13T06:38:44.793Z,13.45
2023-09-13T06:41:20.222Z,12.40
2023-09-13T06:44:08.370Z,12.48
2023-09-13T06:46:51.553Z,13.30
2023-09-13T06:49:23.812Z,13.18
2023-09-13T06:52:06.588Z,14.18
2023-09-13T06:54:46.650Z,14.07
2023-09-13T07:00:04.540Z,16.73
2023-09-13T07:02:36.792Z,17.48
2023-09-13T07:07:42.779Z,4.93
2023-09-13T07:10:16.705Z,1.60
2023-09-13T07:12:44.045Z,1.10
2023-09-13T07:15:18.907Z,1.00
2023-09-13T07:17:46.505Z,1.05
2023-09-13T07:20:21.082Z,1.00
2023-09-13T07:22:48.964Z,1.13
2023-09-13T07:25:24.883Z,1.30
2023-09-13T07:27:58.834Z,1.80
2023-09-13T07:30:35.751Z,1.38
2023-09-13T07:33:03.299Z,1.40
2023-09-13T07:35:37.720Z,1.50
2023-09-13T07:38:05.256Z,1.70
2023-09-13T07:40:39.848Z,1.83
2023-09-13T07:46:02.752Z,1.55
2023-09-13T07:48:56.704Z,1.60
2023-09-13T08:03:33.964Z,1.40
2023-09-13T08:06:44.860Z,1.48
2023-09-13T08:13:34.673Z,2.05
2023-09-13T08:16:52.001Z,1.80
2023-09-13T08:19:25.662Z,2.10
2023-09-13T08:21:52.977Z,2.13
2023-09-13T08:24:26.773Z,2.05
2023-09-13T08:26:54.113Z,2.17
2023-09-13T08:29:27.674Z,1.85
2023-09-13T08:32:01.685Z,1.77
2023-09-13T08:34:31.667Z,1.77
2023-09-13T08:39:49.754Z,2.00
2023-09-13T08:42:23.737Z,1.80
2023-09-13T08:44:59.718Z,2.10
2023-09-13T08:47:46.599Z,2.10
2023-09-13T08:50:26.157Z,1.85
2023-09-13T08:53:01.758Z,2.00
2023-09-13T08:55:37.456Z,2.40
2023-09-13T08:58:11.809Z,2.45
2023-09-13T09:00:49.742Z,2.28
2023-09-13T09:03:25.953Z,2.30
2023-09-13T09:05:53.259Z,2.40
2023-09-13T09:08:27.671Z,1.95
2023-09-13T09:11:04.683Z,1.90
2023-09-13T09:13:39.656Z,1.77
2023-09-13T09:16:08.120Z,1.95
2023-09-13T09:18:45.911Z,1.88
2023-09-13T09:21:13.989Z,1.70
2023-09-13T09:23:48.663Z,1.73
2023-09-13T09:26:21.879Z,2.03
2023-09-13T09:28:51.243Z,1.45
2023-09-13T09:31:27.679Z,1.80
2023-09-13T09:34:04.578Z,1.40
2023-09-13T09:36:42.753Z,1.60
2023-09-13T09:39:10.112Z,2.05
2023-09-13T09:41:44.648Z,1.35
2023-09-13T09:44:13.406Z,1.33
2023-09-13T09:46:47.890Z,1.65
2023-09-13T09:49:15.235Z,1.35
2023-09-13T09:51:48.648Z,1.45
2023-09-13T09:54:18.677Z,1.45
2023-09-13T09:56:51.671Z,1.40
2023-09-13T09:59:36.016Z,1.20
2023-09-13T10:02:10.864Z,1.70
2023-09-13T10:04:52.979Z,1.52
2023-09-13T10:07:26.736Z,1.40
2023-09-13T10:10:07.806Z,1.30
2023-09-13T10:12:45.623Z,1.30
2023-09-13T10:15:19.870Z,1.30
2023-09-13T10:17:50.048Z,1.60
2023-09-13T10:20:25.838Z,1.40
2023-09-13T10:23:02.842Z,1.42
2023-09-13T10:25:41.750Z,1.60
2023-09-13T10:28:11.080Z,1.58
2023-09-13T10:30:47.867Z,1.40
2023-09-13T10:33:16.490Z,1.63
2023-09-13T10:38:39.727Z,1.55
2023-09-13T10:44:12.788Z,1.73
2023-09-13T10:46:47.859Z,1.60
2023-09-13T10:49:14.962Z,1.48
2023-09-13T10:51:49.781Z,1.70
2023-09-13T10:54:22.103Z,2.30
2023-09-13T11:03:08.786Z,2.50
2023-09-13T11:05:36.012Z,2.60
2023-09-13T11:11:53.759Z,2.75
2023-09-13T11:14:35.730Z,2.50
2023-09-13T11:17:46.928Z,2.92
2023-09-13T11:20:41.718Z,2.70
2023-09-13T11:29:17.995Z,2.38
2023-09-13T11:32:01.274Z,2.60
2023-09-13T11:37:18.572Z,2.80
2023-09-13T11:44:02.292Z,2.50
2023-09-13T11:52:28.121Z,2.42
2023-09-13T11:58:00.861Z,2.00
2023-09-13T12:00:32.089Z,2.05
2023-09-13T12:06:36.939Z,2.10
2023-09-13T12:09:48.629Z,2.30
2023-09-13T12:15:04.933Z,2.40
2023-09-13T12:20:34.464Z,2.42
2023-09-13T12:23:07.802Z,2.08
2023-09-13T12:25:40.862Z,2.38
2023-09-13T12:30:56.906Z,2.30
2023-09-13T12:50:18.449Z,2.00
2023-09-13T12:52:55.930Z,2.20
2023-09-13T12:55:38.833Z,2.30
2023-09-13T13:03:43.999Z,1.88
2023-09-13T13:16:43.746Z,1.98
2023-09-13T13:28:13.893Z,2.30
2023-09-13T13:30:43.347Z,2.05
2023-09-13T13:33:25.026Z,2.20
2023-09-13T13:35:52.752Z,2.35
2023-09-13T13:48:49.926Z,2.15
2023-09-13T13:54:07.726Z,1.70
2023-09-13T13:56:42.995Z,2.10
2023-09-13T13:59:41.869Z,2.10
2023-09-13T14:09:22.939Z,2.05
2023-09-13T14:14:49.045Z,2.10
2023-09-13T14:25:30.214Z,1.92
2023-09-13T14:42:03.857Z,1.75
2023-09-13T15:14:17.933Z,2.90
2023-09-13T15:16:59.022Z,2.30
2023-09-13T15:23:37.982Z,2.33
2023-09-13T15:26:07.525Z,1.98
2023-09-13T15:39:37.038Z,2.35
2023-09-13T15:42:04.346Z,2.20
2023-09-13T15:54:43.079Z,2.22
2023-09-13T16:53:31.976Z,1.83
2023-09-13T16:56:20.883Z,2.03
2023-09-13T16:58:57.937Z,2.03
2023-09-13T17:01:28.474Z,2.30
2023-09-13T17:06:50.203Z,1.90
2023-09-13T17:09:30.095Z,2.17
2023-09-13T17:12:24.514Z,1.98
2023-09-13T17:14:53.182Z,1.73
2023-09-13T17:17:30.577Z,1.90
2023-09-13T17:19:57.826Z,2.20
2023-09-13T17:22:31.262Z,2.08
2023-09-13T17:25:01.347Z,1.83
2023-09-13T17:27:35.074Z,2.10
2023-09-13T17:30:02.066Z,1.88
2023-09-13T17:32:36.244Z,2.40
2023-09-13T17:35:03.317Z,2.08
2023-09-13T17:37:40.026Z,2.40
2023-09-13T17:40:20.148Z,2.22
2023-09-13T17:42:49.019Z,1.90
2023-09-13T17:45:30.007Z,2.10
2023-09-13T17:48:08.093Z,1.98
2023-09-13T17:50:38.784Z,2.10
2023-09-13T17:53:13.929Z,2.20
2023-09-13T17:55:41.567Z,2.00
2023-09-13T17:58:08.448Z,1.80
2023-09-13T18:00:46.792Z,1.88
2023-09-13T18:06:11.036Z,2.17
2023-09-13T18:08:47.307Z,2.00
2023-09-13T18:11:20.381Z,2.20
2023-09-13T18:14:02.571Z,1.95
2023-09-13T18:16:33.147Z,2.28
2023-09-13T18:19:19.724Z,2.15
2023-09-13T18:21:47.011Z,1.95
2023-09-13T18:24:36.646Z,2.35
2023-09-13T18:27:11.108Z,1.95
2023-09-13T18:29:47.288Z,1.80
2023-09-13T18:32:24.135Z,1.52
2023-09-13T18:34:51.883Z,2.15
2023-09-13T18:37:29.078Z,2.45
2023-09-13T18:40:06.161Z,1.90
2023-09-13T18:42:43.158Z,1.98
2023-09-13T18:45:14.091Z,2.42
2023-09-13T18:47:50.301Z,2.38
2023-09-13T18:50:21.118Z,2.08
2023-09-13T18:53:00.809Z,1.98
2023-09-13T18:55:33.920Z,2.10
2023-09-13T18:58:11.191Z,2.35
2023-09-13T19:00:44.108Z,2.00
2023-09-13T19:03:18.220Z,1.77
2023-09-13T19:06:13.200Z,1.88
2023-09-13T19:08:54.941Z,2.22
2023-09-13T19:11:25.683Z,2.10
2023-09-13T19:14:06.193Z,1.98
2023-09-13T19:16:44.918Z,2.38
2023-09-13T19:19:19.077Z,2.40
2023-09-13T19:21:56.271Z,2.33
2023-09-13T19:24:23.944Z,2.30
2023-09-13T19:26:58.112Z,2.35
2023-09-13T19:29:28.784Z,2.33
2023-09-13T19:32:03.181Z,2.63
2023-09-13T19:34:37.064Z,2.13
2023-09-13T19:37:11.212Z,2.33
2023-09-13T19:39:42.185Z,2.20
2023-09-13T19:42:17.177Z,3.03
2023-09-13T19:44:44.877Z,2.40
2023-09-13T19:47:19.058Z,2.10
2023-09-13T19:49:49.577Z,2.10
2023-09-13T19:55:27.208Z,2.22
2023-09-13T19:58:05.146Z,2.35
2023-09-13T20:00:48.821Z,2.15
2023-09-13T20:03:24.165Z,2.28
2023-09-13T20:05:59.905Z,2.20
2023-09-13T20:08:38.345Z,2.45
2023-09-13T20:11:05.959Z,2.20
2023-09-13T20:13:46.115Z,2.28
2023-09-13T20:16:13.376Z,2.42
2023-09-13T20:18:56.390Z,2.85
2023-09-13T20:21:26.659Z,2.30
2023-09-13T20:24:00.203Z,2.50
2023-09-13T20:26:27.734Z,2.47
2023-09-13T20:28:55.006Z,2.92
2023-09-13T20:31:36.144Z,2.80
2023-09-13T20:34:10.164Z,3.17
2023-09-13T20:36:46.606Z,3.15
2023-09-13T20:39:14.172Z,2.92
2023-09-13T20:41:51.234Z,2.38
2023-09-13T20:44:23.525Z,2.22
2023-09-13T20:46:57.290Z,2.60
2023-09-13T20:49:27.404Z,2.78
2023-09-13T20:52:04.189Z,2.80
2023-09-13T20:54:33.023Z,2.78
2023-09-13T20:57:07.328Z,2.80
2023-09-13T20:59:41.229Z,2.88
2023-09-13T21:02:15.333Z,2.90
2023-09-13T21:04:45.806Z,2.80
2023-09-13T21:07:25.982Z,3.05
2023-09-13T21:12:50.340Z,2.55
2023-09-13T21:15:18.056Z,2.92
2023-09-13T21:20:29.301Z,3.10
2023-09-13T21:22:56.590Z,3.08
2023-09-13T21:25:36.348Z,2.72
2023-09-13T21:28:04.869Z,2.67
2023-09-13T21:30:41.530Z,3.00
2023-09-13T21:33:09.320Z,3.00
2023-09-13T21:35:49.251Z,3.15
2023-09-13T21:38:16.944Z,3.22
2023-09-13T21:40:54.233Z,3.13
2023-09-13T21:43:25.142Z,2.80
2023-09-13T21:46:02.397Z,3.40
2023-09-13T21:48:32.994Z,3.00
2023-09-13T21:51:11.253Z,3.42
2023-09-13T21:53:44.200Z,3.20
2023-09-13T21:56:18.243Z,3.22
2023-09-13T21:58:52.128Z,3.67
2023-09-13T22:01:21.147Z,3.58
2023-09-13T22:03:55.301Z,3.22
2023-09-13T22:06:30.218Z,3.30
2023-09-13T22:11:45.550Z,3.08
2023-09-13T22:14:26.199Z,3.25
2023-09-13T22:16:53.559Z,3.20
2023-09-13T22:19:30.205Z,3.53
2023-09-13T22:21:57.688Z,2.90
2023-09-13T22:24:32.293Z,3.08
2023-09-13T22:26:59.756Z,3.10
2023-09-13T22:29:34.292Z,2.58
2023-09-13T22:32:02.469Z,2.50
2023-09-13T22:34:38.408Z,3.08
2023-09-13T22:37:13.287Z,3.30
2023-09-13T22:39:50.341Z,3.33
2023-09-13T22:42:23.133Z,2.88
2023-09-13T22:47:46.808Z,3.20
2023-09-13T22:50:21.442Z,3.30
2023-09-13T22:52:57.249Z,3.40
2023-09-13T22:55:30.203Z,3.20
2023-09-13T22:58:04.179Z,3.92
2023-09-13T23:00:44.059Z,3.65
2023-09-13T23:03:34.107Z,3.35
2023-09-13T23:06:14.289Z,4.13
2023-09-13T23:08:51.277Z,3.63
2023-09-13T23:11:25.308Z,3.60
2023-09-13T23:14:07.310Z,3.25
2023-09-13T23:16:51.294Z,3.72
2023-09-13T23:19:25.282Z,3.53
2023-09-13T23:22:08.466Z,3.58
2023-09-13T23:24:49.135Z,3.47
2023-09-13T23:27:23.140Z,3.90
2023-09-13T23:29:57.183Z,3.95
2023-09-13T23:32:26.131Z,3.28
2023-09-13T23:35:03.161Z,3.47
2023-09-13T23:37:30.516Z,4.05
2023-09-13T23:40:06.428Z,3.60
2023-09-13T23:42:33.868Z,3.72
2023-09-13T23:45:11.283Z,3.80
2023-09-13T23:47:38.836Z,3.78
2023-09-13T23:50:14.437Z,3.53
2023-09-13T23:52:52.235Z,3.50
2023-09-13T23:55:19.472Z,3.30
2023-09-13T23:57:55.203Z,3.33
